createdAt,value
2018-06-21T00:01:08.898Z,8.75
2018-06-21T00:03:37.085Z,8.70
2018-06-21T00:06:05.258Z,8.25
2018-06-21T00:08:33.426Z,8.43
2018-06-21T00:11:01.609Z,9.05
2018-06-21T00:13:29.774Z,9.15
2018-06-21T00:15:57.968Z,8.03
2018-06-21T00:18:26.263Z,8.10
2018-06-21T00:20:54.384Z,8.98
2018-06-21T00:23:22.586Z,9.20
2018-06-21T00:25:50.766Z,8.33
2018-06-21T00:28:19.008Z,8.48
2018-06-21T00:30:47.241Z,9.00
2018-06-21T00:33:15.426Z,8.63
2018-06-21T00:35:43.610Z,9.08
2018-06-21T00:38:11.777Z,10.13
2018-06-21T00:40:39.971Z,10.03
2018-06-21T00:43:08.126Z,11.25
2018-06-21T00:45:36.305Z,10.63
2018-06-21T00:48:04.473Z,10.23
2018-06-21T00:50:32.642Z,10.60
2018-06-21T00:53:00.830Z,9.65
2018-06-21T00:55:34.365Z,10.93
2018-06-21T00:58:02.562Z,10.75
2018-06-21T01:00:30.930Z,10.45
2018-06-21T01:02:59.081Z,9.23
2018-06-21T01:05:27.265Z,9.23
2018-06-21T01:07:55.426Z,9.38
2018-06-21T01:10:23.569Z,8.68
2018-06-21T01:12:51.753Z,7.55
2018-06-21T01:15:19.926Z,7.50
2018-06-21T01:17:48.106Z,7.50
2018-06-21T01:20:16.282Z,8.10
2018-06-21T01:22:44.439Z,7.75
2018-06-21T01:25:12.621Z,6.92
2018-06-21T01:27:40.880Z,6.53
2018-06-21T01:30:09.052Z,6.12
2018-06-21T01:32:37.219Z,6.42
2018-06-21T01:35:05.802Z,6.72
2018-06-21T01:37:33.981Z,5.72
2018-06-21T01:40:02.161Z,5.83
2018-06-21T01:42:30.338Z,6.08
2018-06-21T01:44:58.522Z,5.12
2018-06-21T01:47:26.713Z,6.17
2018-06-21T01:49:54.888Z,5.62
2018-06-21T01:52:23.254Z,5.30
2018-06-21T01:54:51.430Z,5.33
2018-06-21T01:57:19.629Z,4.92
2018-06-21T01:59:47.821Z,4.90
2018-06-21T02:02:16.018Z,4.95
2018-06-21T02:04:44.178Z,4.72
2018-06-21T02:07:12.381Z,4.75
2018-06-21T02:09:40.566Z,4.67
2018-06-21T02:12:08.733Z,4.95
2018-06-21T02:14:36.919Z,4.70
2018-06-21T02:17:05.075Z,4.70
2018-06-21T02:19:33.258Z,4.67
2018-06-21T02:22:01.418Z,4.50
2018-06-21T02:24:29.627Z,4.58
2018-06-21T02:26:57.778Z,4.80
2018-06-21T02:29:25.944Z,5.20
2018-06-21T02:31:54.102Z,5.00
2018-06-21T02:34:22.333Z,4.90
2018-06-21T02:36:50.434Z,5.37
2018-06-21T02:39:18.605Z,5.45
2018-06-21T02:41:46.778Z,5.53
2018-06-21T02:44:14.949Z,5.17
2018-06-21T02:46:43.122Z,5.28
2018-06-21T02:49:11.299Z,5.25
2018-06-21T02:51:39.457Z,5.72
2018-06-21T02:54:07.630Z,5.62
2018-06-21T02:56:35.818Z,5.75
2018-06-21T02:59:04.006Z,5.20
2018-06-21T03:01:32.186Z,4.90
2018-06-21T03:04:00.520Z,5.35
2018-06-21T03:06:28.645Z,5.72
2018-06-21T03:08:56.810Z,5.28
2018-06-21T03:11:24.957Z,6.12
2018-06-21T03:13:53.114Z,6.03
2018-06-21T03:16:21.290Z,5.87
2018-06-21T03:18:49.458Z,5.83
2018-06-21T03:21:17.633Z,6.03
2018-06-21T03:23:45.806Z,5.55
2018-06-21T03:26:13.984Z,5.90
2018-06-21T03:28:42.165Z,5.97
2018-06-21T03:31:10.325Z,6.03
2018-06-21T03:33:38.501Z,6.60
2018-06-21T03:36:06.731Z,6.08
2018-06-21T03:38:35.032Z,6.00
2018-06-21T03:41:03.256Z,6.10
2018-06-21T03:43:31.430Z,6.22
2018-06-21T03:45:59.602Z,6.37
2018-06-21T03:48:27.797Z,6.17
2018-06-21T03:50:55.966Z,5.55
2018-06-21T03:53:24.141Z,5.70
2018-06-21T03:55:52.329Z,5.62
2018-06-21T03:58:20.490Z,5.65
2018-06-21T04:00:48.653Z,6.22
2018-06-21T04:03:16.837Z,5.97
2018-06-21T04:05:45.015Z,5.70
2018-06-21T04:08:13.177Z,5.87
2018-06-21T04:10:41.397Z,5.53
2018-06-21T04:13:09.592Z,5.90
2018-06-21T04:15:37.780Z,5.87
2018-06-21T04:18:05.959Z,5.20
2018-06-21T04:20:34.372Z,5.70
2018-06-21T04:23:02.529Z,5.90
2018-06-21T04:25:30.770Z,5.53
2018-06-21T04:27:58.937Z,5.35
2018-06-21T04:30:27.115Z,5.97
2018-06-21T04:32:55.409Z,5.87
2018-06-21T04:35:23.662Z,6.40
2018-06-21T04:37:51.864Z,7.00
2018-06-21T04:40:20.033Z,7.10
2018-06-21T04:42:48.221Z,7.15
2018-06-21T04:45:16.418Z,7.50
2018-06-21T04:47:44.626Z,7.80
2018-06-21T04:50:12.805Z,8.53
2018-06-21T04:52:41.216Z,8.48
2018-06-21T04:55:09.398Z,8.45
2018-06-21T04:57:37.562Z,8.83
2018-06-21T05:00:05.776Z,8.18
2018-06-21T05:02:34.124Z,9.68
2018-06-21T05:05:02.328Z,9.65
2018-06-21T05:07:30.525Z,9.00
2018-06-21T05:09:59.322Z,9.83
2018-06-21T05:12:27.558Z,10.28
2018-06-21T05:14:55.771Z,11.08
2018-06-21T05:17:23.958Z,11.60
2018-06-21T05:19:52.151Z,11.15
2018-06-21T05:22:20.401Z,14.07
2018-06-21T05:24:48.598Z,15.13
2018-06-21T05:27:16.813Z,15.78
2018-06-21T05:29:45.026Z,17.25
2018-06-21T05:32:13.322Z,16.62
2018-06-21T05:34:41.761Z,15.93
2018-06-21T05:37:09.949Z,17.27
2018-06-21T05:39:38.125Z,17.10
2018-06-21T05:42:06.297Z,16.42
2018-06-21T05:44:34.558Z,16.07
2018-06-21T05:47:02.824Z,16.20
2018-06-21T05:49:31.067Z,15.28
2018-06-21T05:51:59.233Z,13.50
2018-06-21T05:54:27.491Z,11.70
2018-06-21T05:56:55.670Z,9.20
2018-06-21T05:59:23.838Z,7.87
2018-06-21T06:01:52.058Z,7.60
2018-06-21T06:04:20.197Z,6.72
2018-06-21T06:06:48.353Z,6.72
2018-06-21T06:09:16.529Z,6.83
2018-06-21T06:11:44.761Z,6.17
2018-06-21T06:14:13.049Z,6.60
2018-06-21T06:16:41.102Z,7.30
2018-06-21T06:19:09.282Z,6.55
2018-06-21T06:21:37.458Z,8.70
2018-06-21T06:24:05.646Z,5.47
2018-06-21T06:26:33.835Z,5.00
2018-06-21T06:29:02.007Z,5.00
2018-06-21T06:31:30.169Z,4.72
2018-06-21T06:33:58.342Z,5.00
2018-06-21T06:36:26.508Z,5.10
2018-06-21T06:38:54.705Z,5.20
2018-06-21T06:41:23.041Z,5.55
2018-06-21T06:43:51.211Z,5.40
2018-06-21T06:46:19.398Z,4.80
2018-06-21T06:48:47.548Z,4.95
2018-06-21T06:51:15.692Z,5.05
2018-06-21T06:53:43.857Z,5.35
2018-06-21T06:56:12.122Z,5.40
2018-06-21T06:58:40.285Z,7.67
2018-06-21T07:01:08.709Z,6.03
2018-06-21T07:03:36.886Z,5.80
2018-06-21T07:06:05.138Z,5.87
2018-06-21T07:08:33.418Z,6.08
2018-06-21T07:11:01.497Z,5.53
2018-06-21T07:13:29.678Z,5.72
2018-06-21T07:15:57.862Z,5.55
2018-06-21T07:18:26.018Z,6.05
2018-06-21T07:20:54.276Z,5.60
2018-06-21T07:23:22.457Z,5.03
2018-06-21T07:25:50.973Z,4.65
2018-06-21T07:28:19.153Z,4.22
2018-06-21T07:30:47.563Z,4.20
2018-06-21T07:33:15.725Z,3.58
2018-06-21T07:35:43.921Z,3.60
2018-06-21T07:38:13.175Z,3.40
2018-06-21T07:40:41.179Z,3.40
2018-06-21T07:43:09.365Z,3.08
2018-06-21T07:45:37.562Z,3.70
2018-06-21T07:48:05.729Z,3.15
2018-06-21T07:50:33.890Z,2.98
2018-06-21T07:53:02.129Z,3.62
2018-06-21T07:55:30.367Z,3.35
2018-06-21T07:57:58.556Z,3.33
2018-06-21T08:00:26.721Z,3.92
2018-06-21T08:02:54.894Z,3.45
2018-06-21T08:05:23.781Z,3.40
2018-06-21T08:07:51.933Z,3.95
2018-06-21T08:10:20.095Z,3.87
2018-06-21T08:12:48.303Z,3.87
2018-06-21T08:15:16.464Z,3.27
2018-06-21T08:17:44.637Z,3.70
2018-06-21T08:20:12.851Z,3.37
2018-06-21T08:22:41.057Z,3.70
2018-06-21T08:25:09.229Z,3.70
2018-06-21T08:27:37.383Z,3.00
2018-06-21T08:30:05.689Z,2.60
2018-06-21T08:32:33.915Z,2.77
2018-06-21T08:35:02.090Z,2.55
2018-06-21T08:37:30.273Z,2.85
2018-06-21T08:39:58.459Z,2.55
2018-06-21T08:42:26.658Z,2.30
2018-06-21T08:44:54.829Z,2.30
2018-06-21T08:47:23.479Z,2.15
2018-06-21T08:49:51.682Z,2.37
2018-06-21T08:52:19.837Z,1.98
2018-06-21T08:54:48.045Z,2.20
2018-06-21T08:57:16.201Z,1.95
2018-06-21T08:59:44.379Z,2.27
2018-06-21T09:02:12.522Z,2.10
2018-06-21T09:04:40.689Z,1.50
2018-06-21T09:07:08.865Z,1.50
2018-06-21T09:09:36.805Z,1.80
2018-06-21T09:12:04.957Z,1.55
2018-06-21T09:14:33.199Z,1.60
2018-06-21T09:17:01.473Z,1.60
2018-06-21T09:19:29.645Z,1.90
2018-06-21T09:21:57.805Z,1.80
2018-06-21T09:24:25.995Z,1.98
2018-06-21T09:26:54.205Z,1.90
2018-06-21T09:29:22.585Z,1.75
2018-06-21T09:31:50.763Z,1.92
2018-06-21T09:34:19.173Z,1.87
2018-06-21T09:36:47.385Z,2.00
2018-06-21T09:39:21.047Z,1.90
2018-06-21T09:41:54.831Z,2.25
2018-06-21T09:44:28.365Z,2.33
2018-06-21T09:47:02.090Z,2.45
2018-06-21T09:49:31.481Z,2.22
2018-06-21T09:52:01.989Z,2.10
2018-06-21T09:54:30.573Z,2.10
2018-06-21T09:56:58.665Z,2.37
2018-06-21T09:59:27.333Z,2.50
2018-06-21T10:01:55.629Z,2.50
2018-06-21T10:04:23.790Z,2.20
2018-06-21T10:06:51.940Z,2.37
2018-06-21T10:09:20.123Z,2.52
2018-06-21T10:11:48.500Z,2.40
2018-06-21T10:14:16.666Z,1.70
2018-06-21T10:16:44.825Z,1.95
2018-06-21T10:19:12.976Z,2.17
2018-06-21T10:21:41.131Z,2.10
2018-06-21T10:24:09.277Z,1.70
2018-06-21T10:26:37.441Z,2.25
2018-06-21T10:29:05.640Z,1.50
2018-06-21T10:31:33.793Z,1.55
2018-06-21T10:34:01.955Z,1.77
2018-06-21T10:36:30.113Z,1.47
2018-06-21T10:38:58.289Z,2.00
2018-06-21T10:41:26.473Z,1.82
2018-06-21T10:43:54.639Z,1.57
2018-06-21T10:46:22.809Z,1.47
2018-06-21T10:48:50.976Z,1.60
2018-06-21T10:51:19.161Z,1.42
2018-06-21T10:53:47.469Z,1.35
2018-06-21T10:56:15.635Z,1.70
2018-06-21T10:58:43.790Z,1.67
2018-06-21T11:01:12.014Z,1.40
2018-06-21T11:03:40.160Z,1.37
2018-06-21T11:06:08.324Z,1.27
2018-06-21T11:08:36.558Z,1.32
2018-06-21T11:11:04.671Z,1.70
2018-06-21T11:13:32.807Z,1.75
2018-06-21T11:16:01.790Z,1.27
2018-06-21T11:18:29.970Z,1.20
2018-06-21T11:20:58.202Z,1.20
2018-06-21T11:23:26.417Z,1.22
2018-06-21T11:25:54.601Z,1.30
2018-06-21T11:28:22.785Z,1.22
2018-06-21T11:30:51.106Z,2.02
2018-06-21T11:33:19.274Z,1.27
2018-06-21T11:35:47.439Z,1.10
2018-06-21T11:38:15.666Z,1.17
2018-06-21T11:40:43.798Z,1.00
2018-06-21T11:43:11.978Z,1.25
2018-06-21T11:45:40.135Z,1.12
2018-06-21T11:48:08.310Z,1.22
2018-06-21T11:50:36.502Z,1.10
2018-06-21T11:53:04.941Z,1.17
2018-06-21T11:55:33.319Z,1.25
2018-06-21T11:58:01.582Z,1.12
2018-06-21T12:00:29.746Z,1.65
2018-06-21T12:02:57.934Z,1.45
2018-06-21T12:05:26.109Z,1.20
2018-06-21T12:07:54.286Z,1.60
2018-06-21T12:10:22.450Z,1.50
2018-06-21T12:12:50.634Z,1.50
2018-06-21T12:15:18.789Z,1.52
2018-06-21T12:17:46.949Z,1.45
2018-06-21T12:20:15.107Z,1.25
2018-06-21T12:22:43.270Z,1.67
2018-06-21T12:25:11.413Z,1.57
2018-06-21T12:27:39.569Z,1.60
2018-06-21T12:30:07.716Z,1.40
2018-06-21T12:32:35.871Z,1.30
2018-06-21T12:35:04.022Z,1.45
2018-06-21T12:37:32.173Z,1.40
2018-06-21T12:40:00.358Z,1.35
2018-06-21T12:42:28.546Z,1.37
2018-06-21T12:44:56.705Z,1.20
2018-06-21T12:47:24.857Z,1.12
2018-06-21T12:49:53.122Z,1.42
2018-06-21T12:52:21.348Z,3.92
2018-06-21T12:54:49.509Z,1.55
2018-06-21T12:57:17.717Z,1.50
2018-06-21T12:59:45.885Z,1.55
2018-06-21T13:02:14.062Z,1.52
2018-06-21T13:04:42.778Z,1.20
2018-06-21T13:07:10.946Z,1.35
2018-06-21T13:09:50.742Z,1.40
2018-06-21T13:12:31.778Z,1.42
2018-06-21T13:15:00.052Z,1.27
2018-06-21T13:17:29.278Z,1.12
2018-06-21T13:19:58.065Z,1.30
2018-06-21T13:22:26.790Z,1.10
2018-06-21T13:24:54.989Z,1.25
2018-06-21T13:27:23.325Z,1.27
2018-06-21T13:29:51.581Z,1.10
2018-06-21T13:32:20.153Z,0.95
2018-06-21T13:34:48.495Z,0.98
2018-06-21T13:37:16.734Z,1.37
2018-06-21T13:39:44.901Z,1.37
2018-06-21T13:42:12.885Z,1.57
2018-06-21T13:44:41.244Z,1.10
2018-06-21T13:47:09.196Z,1.20
2018-06-21T13:49:37.332Z,1.00
2018-06-21T13:52:05.506Z,1.00
2018-06-21T13:54:33.785Z,1.02
2018-06-21T13:57:01.984Z,1.27
2018-06-21T13:59:30.131Z,1.02
2018-06-21T14:01:58.301Z,1.17
2018-06-21T14:04:26.445Z,1.52
2018-06-21T14:06:54.601Z,1.20
2018-06-21T14:09:22.775Z,1.22
2018-06-21T14:11:50.918Z,1.22
2018-06-21T14:14:19.064Z,1.32
2018-06-21T14:16:47.221Z,1.12
2018-06-21T14:19:15.449Z,1.17
2018-06-21T14:21:43.653Z,1.50
2018-06-21T14:24:13.029Z,1.30
2018-06-21T14:26:41.662Z,0.95
2018-06-21T14:29:09.809Z,1.17
2018-06-21T14:31:37.839Z,1.30
2018-06-21T14:34:06.010Z,1.30
2018-06-21T14:36:34.446Z,1.10
2018-06-21T14:39:03.431Z,1.20
2018-06-21T14:41:31.601Z,1.12
2018-06-21T14:43:59.750Z,1.27
2018-06-21T14:46:27.902Z,3.10
2018-06-21T14:48:56.543Z,1.40
2018-06-21T14:51:24.690Z,1.15
2018-06-21T14:53:52.870Z,1.40
2018-06-21T14:56:21.027Z,1.32
2018-06-21T14:58:49.190Z,1.40
2018-06-21T15:01:17.361Z,1.40
2018-06-21T15:03:45.529Z,1.07
2018-06-21T15:06:13.702Z,1.02
2018-06-21T15:08:41.869Z,1.30
2018-06-21T15:11:10.087Z,0.85
2018-06-21T15:13:38.216Z,1.27
2018-06-21T15:16:06.410Z,1.37
2018-06-21T15:18:34.576Z,1.20
2018-06-21T15:21:02.814Z,1.17
2018-06-21T15:23:31.012Z,1.10
2018-06-21T15:25:59.218Z,0.72
2018-06-21T15:28:27.377Z,0.98
2018-06-21T15:30:55.581Z,0.60
2018-06-21T15:33:23.506Z,0.50
2018-06-21T15:35:51.681Z,0.70
2018-06-21T15:38:20.257Z,0.70
2018-06-21T15:40:48.454Z,0.98
2018-06-21T15:43:16.621Z,0.80
2018-06-21T15:45:44.792Z,1.05
2018-06-21T15:48:12.987Z,0.95
2018-06-21T15:50:41.245Z,0.90
2018-06-21T15:53:09.483Z,0.70
2018-06-21T15:55:37.693Z,1.10
2018-06-21T15:58:05.997Z,1.30
2018-06-21T16:00:34.174Z,1.10
2018-06-21T16:03:02.797Z,0.88
2018-06-21T16:05:30.986Z,0.93
2018-06-21T16:07:59.158Z,0.95
2018-06-21T16:10:27.341Z,0.90
2018-06-21T16:12:55.496Z,1.10
2018-06-21T16:15:23.725Z,1.10
2018-06-21T16:17:51.890Z,1.07
2018-06-21T16:20:20.083Z,1.15
2018-06-21T16:22:48.341Z,0.70
2018-06-21T16:25:16.465Z,1.00
2018-06-21T16:27:44.683Z,0.90
2018-06-21T16:30:12.872Z,1.22
2018-06-21T16:32:41.135Z,1.50
2018-06-21T16:35:09.305Z,0.90
2018-06-21T16:37:37.457Z,0.80
2018-06-21T16:40:05.709Z,1.05
2018-06-21T16:42:33.892Z,1.02
2018-06-21T16:45:02.127Z,1.15
2018-06-21T16:47:30.306Z,0.90
2018-06-21T16:49:58.498Z,1.25
2018-06-21T16:52:26.757Z,1.37
2018-06-21T16:54:54.950Z,1.62
2018-06-21T16:57:23.126Z,1.42
2018-06-21T16:59:51.278Z,1.62
2018-06-21T17:02:19.433Z,1.15
2018-06-21T17:04:47.595Z,1.20
2018-06-21T17:07:15.794Z,1.57
2018-06-21T17:09:43.981Z,1.55
2018-06-21T17:12:12.162Z,1.60
2018-06-21T17:14:40.331Z,1.67
2018-06-21T17:17:08.596Z,1.35
2018-06-21T17:19:36.686Z,1.50
2018-06-21T17:22:04.882Z,1.40
2018-06-21T17:24:33.090Z,1.67
2018-06-21T17:27:01.306Z,1.50
2018-06-21T17:29:29.506Z,1.50
2018-06-21T17:31:57.724Z,1.62
2018-06-21T17:34:25.951Z,2.90
2018-06-21T17:36:54.204Z,1.92
2018-06-21T17:39:22.348Z,1.80
2018-06-21T17:41:50.554Z,1.72
2018-06-21T17:44:18.741Z,1.77
2018-06-21T17:46:46.998Z,1.57
2018-06-21T17:49:15.282Z,1.30
2018-06-21T17:51:43.454Z,1.25
2018-06-21T17:54:11.637Z,1.40
2018-06-21T17:56:39.814Z,1.07
2018-06-21T17:59:09.047Z,1.25
2018-06-21T18:01:38.163Z,1.20
2018-06-21T18:04:06.574Z,1.00
2018-06-21T18:06:35.065Z,0.90
2018-06-21T18:09:05.519Z,0.78
2018-06-21T18:11:34.141Z,0.95
2018-06-21T18:14:03.936Z,1.10
2018-06-21T18:16:32.311Z,1.15
2018-06-21T18:19:00.890Z,1.10
2018-06-21T18:21:29.433Z,1.10
2018-06-21T18:23:59.262Z,0.90
2018-06-21T18:26:27.554Z,1.00
2018-06-21T18:28:56.194Z,1.55
2018-06-21T18:31:25.228Z,1.57
2018-06-21T18:33:53.820Z,1.45
2018-06-21T18:36:23.283Z,1.45
2018-06-21T18:38:51.949Z,1.47
2018-06-21T18:41:21.510Z,1.55
2018-06-21T18:43:50.739Z,9.75
2018-06-21T18:46:20.191Z,1.80
2018-06-21T18:48:48.655Z,3.15
2018-06-21T18:51:17.081Z,1.98
2018-06-21T18:53:45.959Z,1.47
2018-06-21T18:56:14.150Z,1.45
2018-06-21T18:58:42.788Z,0.90
2018-06-21T19:01:12.788Z,1.30
2018-06-21T19:03:41.445Z,1.67
2018-06-21T19:06:15.372Z,1.20
2018-06-21T19:08:49.822Z,1.40
2018-06-21T19:11:24.018Z,1.32
2018-06-21T19:13:53.050Z,0.82
2018-06-21T19:16:21.382Z,1.17
2018-06-21T19:18:50.290Z,1.20
2018-06-21T19:21:18.948Z,1.02
2018-06-21T19:23:48.037Z,1.10
2018-06-21T19:26:17.133Z,1.10
2018-06-21T19:28:45.889Z,1.07
2018-06-21T19:31:15.820Z,1.17
2018-06-21T19:33:44.697Z,1.37
2018-06-21T19:36:13.474Z,0.98
2018-06-21T19:38:42.099Z,0.95
2018-06-21T19:41:10.513Z,1.37
2018-06-21T19:43:38.858Z,1.17
2018-06-21T19:46:07.122Z,0.82
2018-06-21T19:48:36.521Z,1.17
2018-06-21T19:51:04.803Z,1.25
2018-06-21T19:53:33.162Z,1.55
2018-06-21T19:56:01.458Z,1.27
2018-06-21T19:58:29.713Z,1.20
2018-06-21T20:00:58.071Z,1.17
2018-06-21T20:03:26.306Z,1.25
2018-06-21T20:05:54.482Z,1.30
2018-06-21T20:08:22.658Z,1.32
2018-06-21T20:10:56.208Z,1.27
2018-06-21T20:13:24.398Z,1.55
2018-06-21T20:15:53.661Z,1.30
2018-06-21T20:18:22.193Z,1.50
2018-06-21T20:20:50.577Z,1.65
2018-06-21T20:23:19.908Z,1.50
2018-06-21T20:25:48.086Z,1.47
2018-06-21T20:28:16.555Z,1.65
2018-06-21T20:30:45.496Z,1.25
2018-06-21T20:33:13.769Z,1.70
2018-06-21T20:35:42.054Z,1.42
2018-06-21T20:38:10.288Z,1.80
2018-06-21T20:40:38.426Z,1.62
2018-06-21T20:43:06.601Z,2.05
2018-06-21T20:45:34.799Z,2.42
2018-06-21T20:48:02.970Z,1.37
2018-06-21T20:50:31.201Z,1.35
2018-06-21T20:52:59.362Z,1.60
2018-06-21T20:55:27.583Z,1.55
2018-06-21T20:57:55.769Z,1.62
2018-06-21T21:00:23.941Z,1.60
2018-06-21T21:02:52.115Z,1.50
2018-06-21T21:05:20.389Z,1.57
2018-06-21T21:07:49.811Z,1.70
2018-06-21T21:10:18.789Z,1.92
2018-06-21T21:12:47.009Z,1.30
2018-06-21T21:15:15.612Z,1.75
2018-06-21T21:17:43.797Z,1.45
2018-06-21T21:20:11.970Z,1.40
2018-06-21T21:22:40.853Z,1.57
2018-06-21T21:25:09.063Z,1.22
2018-06-21T21:27:37.234Z,1.52
2018-06-21T21:30:06.778Z,1.80
2018-06-21T21:32:35.090Z,1.45
2018-06-21T21:35:03.294Z,2.05
2018-06-21T21:37:31.477Z,2.00
2018-06-21T21:40:03.075Z,2.37
2018-06-21T21:42:32.277Z,1.87
2018-06-21T21:45:00.478Z,1.80
2018-06-21T21:47:28.779Z,1.98
2018-06-21T21:49:57.082Z,2.27
2018-06-21T21:52:25.345Z,1.85
2018-06-21T21:54:53.524Z,1.95
2018-06-21T21:57:21.705Z,1.92
2018-06-21T21:59:50.308Z,2.00
2018-06-21T22:02:18.802Z,2.10
2018-06-21T22:04:47.282Z,1.95
2018-06-21T22:07:15.601Z,2.10
2018-06-21T22:09:44.226Z,1.92
2018-06-21T22:12:12.406Z,1.80
2018-06-21T22:14:40.585Z,2.05
2018-06-21T22:17:08.802Z,1.90
2018-06-21T22:19:36.982Z,1.72
2018-06-21T22:22:05.232Z,1.85
2018-06-21T22:24:33.401Z,2.20
2018-06-21T22:27:01.587Z,1.95
2018-06-21T22:29:29.982Z,1.67
2018-06-21T22:31:58.150Z,1.87
2018-06-21T22:34:26.321Z,2.17
2018-06-21T22:36:54.506Z,2.00
2018-06-21T22:39:22.798Z,1.40
2018-06-21T22:41:50.977Z,1.72
2018-06-21T22:44:19.145Z,1.87
2018-06-21T22:46:47.337Z,2.00
2018-06-21T22:49:15.513Z,1.85
2018-06-21T22:51:43.689Z,1.30
2018-06-21T22:54:11.862Z,1.50
2018-06-21T22:56:40.061Z,1.95
2018-06-21T22:59:08.233Z,1.30
2018-06-21T23:01:36.434Z,1.75
2018-06-21T23:04:04.606Z,1.77
2018-06-21T23:06:32.797Z,1.92
2018-06-21T23:09:00.973Z,1.82
2018-06-21T23:11:29.215Z,2.10
2018-06-21T23:13:57.362Z,1.77
2018-06-21T23:16:25.533Z,2.00
2018-06-21T23:19:04.949Z,1.90
2018-06-21T23:21:33.125Z,1.92
2018-06-21T23:24:01.303Z,1.87
2018-06-21T23:26:29.482Z,2.10
2018-06-21T23:28:57.666Z,2.00
2018-06-21T23:31:25.867Z,2.22
2018-06-21T23:33:54.058Z,2.22
2018-06-21T23:36:22.242Z,2.00
2018-06-21T23:38:50.418Z,1.57
2018-06-21T23:41:18.606Z,1.82
2018-06-21T23:43:46.773Z,1.62
2018-06-21T23:46:14.946Z,1.80
2018-06-21T23:48:43.138Z,2.33
2018-06-21T23:51:11.281Z,1.55
2018-06-21T23:53:39.446Z,1.62
2018-06-21T23:56:07.618Z,2.20
2018-06-21T23:58:35.801Z,2.05
